createdAt,value
2019-01-05T00:00:29.832Z,1.87
2019-01-05T00:03:24.254Z,1.20
2019-01-05T00:06:11.464Z,4.17
2019-01-05T00:08:55.258Z,2.50
2019-01-05T00:12:02.088Z,2.40
2019-01-05T00:14:50.692Z,2.30
2019-01-05T00:17:38.087Z,2.60
2019-01-05T00:20:26.528Z,1.30
2019-01-05T00:23:31.004Z,1.57
2019-01-05T00:26:18.472Z,3.20
2019-01-05T00:29:07.286Z,4.47
2019-01-05T00:32:15.244Z,2.47
2019-01-05T00:35:04.219Z,4.10
2019-01-05T00:38:03.962Z,1.97
2019-01-05T00:41:05.854Z,2.63
2019-01-05T00:43:55.508Z,2.37
2019-01-05T00:46:54.478Z,4.17
2019-01-05T00:49:55.842Z,2.03
2019-01-05T00:52:43.445Z,1.93
2019-01-05T00:55:50.325Z,3.73
2019-01-05T00:58:48.398Z,2.70
2019-01-05T01:01:42.690Z,3.70
2019-01-05T01:04:37.087Z,2.90
2019-01-05T01:07:32.740Z,3.57
2019-01-05T01:10:20.454Z,1.43
2019-01-05T01:13:07.413Z,2.40
2019-01-05T01:15:59.576Z,3.67
2019-01-05T01:18:51.131Z,2.83
2019-01-05T01:21:48.914Z,3.83
2019-01-05T01:24:55.908Z,4.47
2019-01-05T01:27:42.709Z,6.07
2019-01-05T01:30:43.082Z,5.03
2019-01-05T01:33:31.235Z,9.57
2019-01-05T01:36:34.907Z,6.97
2019-01-05T01:39:18.588Z,9.00
2019-01-05T01:42:06.352Z,11.87
2019-01-05T01:45:04.485Z,9.83
2019-01-05T01:47:54.186Z,9.27
2019-01-05T01:50:42.583Z,15.77
2019-01-05T01:53:36.904Z,12.80
2019-01-05T01:56:25.393Z,16.27
2019-01-05T01:59:15.417Z,12.50
2019-01-05T02:02:14.610Z,13.63
2019-01-05T02:05:06.148Z,12.13
2019-01-05T02:07:58.183Z,18.33
2019-01-05T02:10:48.568Z,10.87
2019-01-05T02:13:42.668Z,12.87
2019-01-05T02:16:33.668Z,17.00
2019-01-05T02:19:39.039Z,15.47
2019-01-05T02:23:15.432Z,7.37
2019-01-05T02:26:22.799Z,9.47
2019-01-05T02:29:57.609Z,13.33
2019-01-05T02:33:32.136Z,10.33
2019-01-05T02:36:47.875Z,11.10
2019-01-05T02:40:02.337Z,10.27
2019-01-05T02:43:29.440Z,11.90
2019-01-05T02:47:04.118Z,6.63
2019-01-05T02:50:57.718Z,7.17
2019-01-05T02:54:29.568Z,6.80
2019-01-05T02:58:02.969Z,9.00
2019-01-05T03:01:40.621Z,7.47
2019-01-05T03:04:56.742Z,11.00
2019-01-05T03:08:21.162Z,7.57
2019-01-05T03:11:50.452Z,10.43
2019-01-05T03:15:17.884Z,14.93
2019-01-05T03:18:53.382Z,13.43
2019-01-05T03:22:18.696Z,12.13
2019-01-05T03:25:38.268Z,14.87
2019-01-05T03:28:48.835Z,11.40
2019-01-05T03:32:42.259Z,10.83
2019-01-05T03:36:18.385Z,11.63
2019-01-05T03:40:11.483Z,12.57
2019-01-05T03:43:39.181Z,10.73
2019-01-05T03:47:07.435Z,7.00
2019-01-05T03:50:42.321Z,10.10
2019-01-05T03:54:16.111Z,8.93
2019-01-05T03:57:51.082Z,12.07
2019-01-05T04:01:10.057Z,7.07
2019-01-05T04:04:48.645Z,5.27
2019-01-05T04:08:02.380Z,6.77
2019-01-05T04:12:01.189Z,6.23
2019-01-05T04:15:41.135Z,5.50
2019-01-05T04:18:50.162Z,5.17
2019-01-05T04:22:55.106Z,8.27
2019-01-05T04:26:20.592Z,5.47
2019-01-05T04:29:22.939Z,4.37
2019-01-05T04:32:50.867Z,8.93
2019-01-05T04:36:50.605Z,6.10
2019-01-05T04:40:34.921Z,10.50
2019-01-05T04:44:02.107Z,12.83
2019-01-05T04:47:37.143Z,13.27
2019-01-05T04:51:29.922Z,8.83
2019-01-05T04:55:08.140Z,17.17
2019-01-05T04:58:37.513Z,17.47
2019-01-05T05:02:02.787Z,19.10
2019-01-05T05:05:58.041Z,18.53
2019-01-05T05:09:30.083Z,18.40
2019-01-05T05:16:25.430Z,25.13
2019-01-05T05:19:46.718Z,25.50
2019-01-05T05:23:26.990Z,22.87
2019-01-05T05:27:04.837Z,28.97
2019-01-05T05:31:04.349Z,25.00
2019-01-05T05:34:38.991Z,29.27
2019-01-05T05:38:11.200Z,26.33
2019-01-05T05:41:42.225Z,32.43
2019-01-05T05:45:11.572Z,32.70
2019-01-05T05:48:45.759Z,32.27
2019-01-05T05:52:10.233Z,35.50
2019-01-05T05:55:35.280Z,27.43
2019-01-05T05:58:52.483Z,37.23
2019-01-05T06:02:01.799Z,30.57
2019-01-05T06:05:25.607Z,34.20
2019-01-05T06:09:10.253Z,36.27
2019-01-05T06:12:37.297Z,33.47
2019-01-05T06:16:02.132Z,33.23
2019-01-05T06:19:48.747Z,25.93
2019-01-05T06:23:19.143Z,26.10
2019-01-05T06:27:06.679Z,17.87
2019-01-05T06:30:25.298Z,31.13
2019-01-05T06:33:44.906Z,33.33
2019-01-05T06:37:20.334Z,30.00
2019-01-05T06:40:49.699Z,27.47
2019-01-05T06:44:20.147Z,27.00
2019-01-05T06:47:50.277Z,29.60
2019-01-05T06:51:25.743Z,25.60
2019-01-05T06:55:08.259Z,20.70
2019-01-05T06:58:36.925Z,25.13
2019-01-05T07:02:18.568Z,18.37
2019-01-05T07:06:00.865Z,19.60
2019-01-05T07:09:30.651Z,15.27
2019-01-05T07:12:53.299Z,19.00
2019-01-05T07:16:31.600Z,22.27
2019-01-05T07:19:56.096Z,18.27
2019-01-05T07:23:09.821Z,14.83
2019-01-05T07:26:53.057Z,16.83
2019-01-05T07:30:16.205Z,18.80
2019-01-05T07:33:52.614Z,12.10
2019-01-05T07:37:41.647Z,16.10
2019-01-05T07:41:43.162Z,14.63
2019-01-05T07:45:04.696Z,12.83
2019-01-05T07:48:27.635Z,12.67
2019-01-05T07:52:03.747Z,16.77
2019-01-05T07:55:42.112Z,14.63
2019-01-05T07:59:03.391Z,10.82
2019-01-05T08:02:57.539Z,13.50
2019-01-05T08:06:28.491Z,16.17
2019-01-05T08:10:27.838Z,10.80
2019-01-05T08:14:00.984Z,9.57
2019-01-05T08:17:44.408Z,12.87
2019-01-05T08:21:08.166Z,10.47
2019-01-05T08:24:35.402Z,6.63
2019-01-05T08:28:08.336Z,12.60
2019-01-05T08:32:01.729Z,8.70
2019-01-05T08:35:45.903Z,7.93
2019-01-05T08:39:18.599Z,8.63
2019-01-05T08:42:52.992Z,6.97
2019-01-05T08:46:16.909Z,10.33
2019-01-05T08:49:28.487Z,7.23
2019-01-05T08:52:44.214Z,7.30
2019-01-05T08:56:15.376Z,11.40
2019-01-05T08:59:56.882Z,10.83
2019-01-05T09:03:54.625Z,6.97
2019-01-05T09:07:21.731Z,12.30
2019-01-05T09:11:00.465Z,7.73
2019-01-05T09:14:23.441Z,7.57
2019-01-05T09:17:44.045Z,11.10
2019-01-05T09:21:06.289Z,10.90
2019-01-05T09:24:55.067Z,10.17
2019-01-05T09:28:56.213Z,15.50
2019-01-05T09:32:21.314Z,8.97
2019-01-05T09:35:44.603Z,10.23
2019-01-05T09:39:08.524Z,7.20
2019-01-05T09:42:29.266Z,11.43
2019-01-05T09:45:58.429Z,10.87
2019-01-05T09:49:38.165Z,6.37
2019-01-05T09:53:12.341Z,12.03
2019-01-05T09:56:23.763Z,6.13
2019-01-05T09:59:58.137Z,12.73
2019-01-05T10:03:28.846Z,7.20
2019-01-05T10:06:45.780Z,8.47
2019-01-05T10:10:19.780Z,14.67
2019-01-05T10:13:58.605Z,10.30
2019-01-05T10:17:16.503Z,7.87
2019-01-05T10:20:43.008Z,11.27
2019-01-05T10:24:08.932Z,8.43
2019-01-05T10:27:24.871Z,11.17
2019-01-05T10:31:02.612Z,11.07
2019-01-05T10:34:42.163Z,10.23
2019-01-05T10:38:25.613Z,7.60
2019-01-05T10:41:40.213Z,9.63
2019-01-05T10:45:04.161Z,6.60
2019-01-05T10:48:26.341Z,8.37
2019-01-05T10:52:19.446Z,8.07
2019-01-05T10:55:51.586Z,6.20
2019-01-05T10:59:12.417Z,9.07
2019-01-05T11:02:39.117Z,5.93
2019-01-05T11:06:02.050Z,8.30
2019-01-05T11:09:27.491Z,7.00
2019-01-05T11:12:59.810Z,5.83
2019-01-05T11:16:33.474Z,11.53
2019-01-05T11:20:35.739Z,7.70
2019-01-05T11:24:33.938Z,12.53
2019-01-05T11:28:03.346Z,7.23
2019-01-05T11:31:29.013Z,9.50
2019-01-05T11:34:59.403Z,9.23
2019-01-05T11:38:47.019Z,6.37
2019-01-05T11:42:21.387Z,8.17
2019-01-05T11:45:56.316Z,9.13
2019-01-05T11:49:16.950Z,8.23
2019-01-05T11:52:37.945Z,5.13
2019-01-05T11:56:14.391Z,7.37
2019-01-05T11:59:55.098Z,11.63
2019-01-05T12:03:19.874Z,9.60
2019-01-05T12:07:02.794Z,9.73
2019-01-05T12:10:44.563Z,8.77
2019-01-05T12:14:07.663Z,7.67
2019-01-05T12:17:43.920Z,5.00
2019-01-05T12:21:13.922Z,8.10
2019-01-05T12:24:51.266Z,4.20
2019-01-05T12:28:04.363Z,5.93
2019-01-05T12:31:31.580Z,5.03
2019-01-05T12:34:50.174Z,6.27
2019-01-05T12:37:59.376Z,6.37
2019-01-05T12:41:24.918Z,5.97
2019-01-05T12:44:59.047Z,5.57
2019-01-05T12:48:05.114Z,9.77
2019-01-05T12:51:37.921Z,5.60
2019-01-05T12:55:29.995Z,4.77
2019-01-05T12:59:02.156Z,7.03
2019-01-05T13:02:22.062Z,4.93
2019-01-05T13:05:46.855Z,4.50
2019-01-05T13:09:28.518Z,4.83
2019-01-05T13:12:54.734Z,3.87
2019-01-05T13:16:23.888Z,2.83
2019-01-05T13:19:40.433Z,5.70
2019-01-05T13:23:00.280Z,4.60
2019-01-05T13:26:27.584Z,3.03
2019-01-05T13:29:55.521Z,4.27
2019-01-05T13:33:23.194Z,4.33
2019-01-05T13:36:50.423Z,4.93
2019-01-05T13:40:17.653Z,4.07
2019-01-05T13:44:04.650Z,4.77
2019-01-05T13:47:46.378Z,4.07
2019-01-05T13:51:10.129Z,5.20
2019-01-05T13:54:17.620Z,4.73
2019-01-05T13:57:14.818Z,3.43
2019-01-05T14:00:21.288Z,5.20
2019-01-05T14:03:05.348Z,4.37
2019-01-05T14:06:05.342Z,4.37
2019-01-05T14:08:52.362Z,6.03
2019-01-05T14:11:40.746Z,3.10
2019-01-05T14:14:32.504Z,4.53
2019-01-05T14:17:19.928Z,5.37
2019-01-05T14:20:23.702Z,5.50
2019-01-05T14:23:19.271Z,4.13
2019-01-05T14:26:06.755Z,4.83
2019-01-05T14:29:00.903Z,3.33
2019-01-05T14:31:56.492Z,4.43
2019-01-05T14:34:37.887Z,3.60
2019-01-05T14:37:25.238Z,6.07
2019-01-05T14:40:03.201Z,4.90
2019-01-05T14:42:51.610Z,4.70
2019-01-05T14:45:47.061Z,5.53
2019-01-05T14:48:52.223Z,7.13
2019-01-05T14:51:50.483Z,4.60
2019-01-05T14:54:38.834Z,4.70
2019-01-05T14:57:26.117Z,5.93
2019-01-05T15:00:13.236Z,2.67
2019-01-05T15:02:56.717Z,5.90
2019-01-05T15:05:51.199Z,3.90
2019-01-05T15:08:49.898Z,3.00
2019-01-05T15:11:38.278Z,5.57
2019-01-05T15:14:40.506Z,2.23
2019-01-05T15:17:27.814Z,5.43
2019-01-05T15:20:14.810Z,6.20
2019-01-05T15:23:18.330Z,4.40
2019-01-05T15:26:18.520Z,5.70
2019-01-05T15:29:07.255Z,4.13
2019-01-05T15:32:01.998Z,6.87
2019-01-05T15:35:02.694Z,4.73
2019-01-05T15:38:03.068Z,5.87
2019-01-05T15:40:59.195Z,4.73
2019-01-05T15:43:46.268Z,3.80
2019-01-05T15:46:33.658Z,8.77
2019-01-05T15:49:26.974Z,7.23
2019-01-05T15:52:13.903Z,6.50
2019-01-05T15:55:20.429Z,6.13
2019-01-05T15:58:07.323Z,5.43
2019-01-05T16:00:54.243Z,5.43
2019-01-05T16:03:40.020Z,6.73
2019-01-05T16:06:27.192Z,6.03
2019-01-05T16:09:15.382Z,5.53
2019-01-05T16:12:21.844Z,3.93
2019-01-05T16:15:19.128Z,6.70
2019-01-05T16:18:08.244Z,5.57
2019-01-05T16:21:15.068Z,4.57
2019-01-05T16:24:21.501Z,6.67
2019-01-05T16:27:08.504Z,6.27
2019-01-05T16:30:00.374Z,6.33
2019-01-05T16:32:41.254Z,7.47
2019-01-05T16:35:33.650Z,6.70
2019-01-05T16:38:25.963Z,4.40
2019-01-05T16:41:09.740Z,3.93
2019-01-05T16:44:06.969Z,2.77
2019-01-05T16:46:54.210Z,4.80
2019-01-05T16:49:48.647Z,5.40
2019-01-05T16:52:55.529Z,6.67
2019-01-05T16:55:49.657Z,8.77
2019-01-05T16:58:43.872Z,4.27
2019-01-05T17:01:38.381Z,6.23
2019-01-05T17:04:25.421Z,3.70
2019-01-05T17:07:12.630Z,5.67
2019-01-05T17:10:16.001Z,6.77
2019-01-05T17:13:03.880Z,8.70
2019-01-05T17:16:01.413Z,9.77
2019-01-05T17:19:05.139Z,8.37
2019-01-05T17:21:52.256Z,5.97
2019-01-05T17:24:50.076Z,5.13
2019-01-05T17:27:41.873Z,5.37
2019-01-05T17:30:24.845Z,8.27
2019-01-05T17:33:19.037Z,6.83
2019-01-05T17:36:13.300Z,8.87
2019-01-05T17:39:20.191Z,8.07
2019-01-05T17:42:07.391Z,5.60
2019-01-05T17:45:03.162Z,7.33
2019-01-05T17:47:50.764Z,10.67
2019-01-05T17:50:38.278Z,10.23
2019-01-05T17:53:26.746Z,9.10
2019-01-05T17:56:14.328Z,15.83
2019-01-05T17:59:04.541Z,8.70
2019-01-05T18:02:05.240Z,10.37
2019-01-05T18:04:52.511Z,9.70
2019-01-05T18:07:41.197Z,6.43
2019-01-05T18:10:28.473Z,6.80
2019-01-05T18:13:17.300Z,7.57
2019-01-05T18:16:14.694Z,7.47
2019-01-05T18:19:03.088Z,6.67
2019-01-05T18:22:00.811Z,11.03
2019-01-05T18:24:48.102Z,7.30
2019-01-05T18:27:45.422Z,7.00
2019-01-05T18:30:32.436Z,4.37
2019-01-05T18:33:19.528Z,6.53
2019-01-05T18:36:13.991Z,4.13
2019-01-05T18:39:01.202Z,8.77
2019-01-05T18:41:48.402Z,7.10
2019-01-05T18:44:55.047Z,3.90
2019-01-05T18:47:42.255Z,7.13
2019-01-05T18:50:46.678Z,5.47
2019-01-05T18:53:53.486Z,4.93
2019-01-05T18:56:38.835Z,5.30
2019-01-05T18:59:26.095Z,5.23
2019-01-05T19:02:23.644Z,8.50
2019-01-05T19:05:10.645Z,6.53
2019-01-05T19:08:02.146Z,4.77
2019-01-05T19:10:55.999Z,6.67
2019-01-05T19:13:45.785Z,6.47
2019-01-05T19:16:33.086Z,8.00
2019-01-05T19:19:20.969Z,4.60
2019-01-05T19:22:08.163Z,8.67
2019-01-05T19:25:08.686Z,4.63
2019-01-05T19:27:56.035Z,3.83
2019-01-05T19:30:59.469Z,4.83
2019-01-05T19:33:47.882Z,4.53
2019-01-05T19:36:42.017Z,6.17
2019-01-05T19:39:34.641Z,4.53
2019-01-05T19:42:16.689Z,8.93
2019-01-05T19:45:17.051Z,14.57
2019-01-05T19:48:17.715Z,7.10
2019-01-05T19:51:15.759Z,4.17
2019-01-05T19:54:06.905Z,6.70
2019-01-05T19:57:07.431Z,4.33
2019-01-05T19:59:55.001Z,6.07
2019-01-05T20:02:46.175Z,4.77
2019-01-05T20:05:33.405Z,4.63
2019-01-05T20:08:20.639Z,5.97
2019-01-05T20:11:18.347Z,5.63
2019-01-05T20:14:05.745Z,7.43
2019-01-05T20:17:12.416Z,5.20
2019-01-05T20:20:03.987Z,7.63
2019-01-05T20:22:52.429Z,8.40
2019-01-05T20:25:49.873Z,6.13
2019-01-05T20:28:43.982Z,5.90
2019-01-05T20:31:41.402Z,10.80
2019-01-05T20:34:42.909Z,4.80
2019-01-05T20:37:33.991Z,4.33
2019-01-05T20:40:25.409Z,4.30
2019-01-05T20:43:10.317Z,6.17
2019-01-05T20:46:01.781Z,4.13
2019-01-05T20:48:48.879Z,3.57
2019-01-05T20:51:35.880Z,2.67
2019-01-05T20:54:23.274Z,3.03
2019-01-05T20:57:11.695Z,4.60
2019-01-05T20:59:53.158Z,3.03
2019-01-05T21:02:50.559Z,3.13
2019-01-05T21:05:38.134Z,2.53
2019-01-05T21:08:35.523Z,2.93
2019-01-05T21:11:26.777Z,2.47
2019-01-05T21:14:13.906Z,2.73
2019-01-05T21:17:02.540Z,4.40
2019-01-05T21:20:04.498Z,2.73
2019-01-05T21:23:03.718Z,3.33
2019-01-05T21:25:50.576Z,2.73
2019-01-05T21:28:37.874Z,2.80
2019-01-05T21:31:26.268Z,2.80
2019-01-05T21:34:13.380Z,2.60
2019-01-05T21:37:00.889Z,2.77
2019-01-05T21:39:53.010Z,2.47
2019-01-05T21:42:54.043Z,2.33
2019-01-05T21:45:41.237Z,3.63
2019-01-05T21:48:28.712Z,2.37
2019-01-05T21:51:15.537Z,4.27
2019-01-05T21:54:06.966Z,4.23
2019-01-05T21:57:12.164Z,1.90
2019-01-05T21:59:59.481Z,1.83
2019-01-05T22:03:03.167Z,3.97
2019-01-05T22:05:51.555Z,3.60
2019-01-05T22:08:40.674Z,2.67
2019-01-05T22:11:24.036Z,3.40
2019-01-05T22:14:15.964Z,3.37
2019-01-05T22:17:22.404Z,2.23
2019-01-05T22:20:13.312Z,2.03
2019-01-05T22:23:16.712Z,3.50
2019-01-05T22:26:03.814Z,5.37
2019-01-05T22:28:52.600Z,4.33
2019-01-05T22:31:39.862Z,3.00
2019-01-05T22:34:27.079Z,3.43
2019-01-05T22:37:14.494Z,4.67
2019-01-05T22:40:08.815Z,3.57
2019-01-05T22:42:56.172Z,2.17
2019-01-05T22:45:44.522Z,2.63
2019-01-05T22:48:33.181Z,2.70
2019-01-05T22:51:23.702Z,2.40
2019-01-05T22:54:10.934Z,3.10
2019-01-05T22:56:58.274Z,4.60
2019-01-05T22:59:52.874Z,4.33
2019-01-05T23:02:40.217Z,4.23
2019-01-05T23:05:20.883Z,6.83
2019-01-05T23:08:24.612Z,4.10
2019-01-05T23:11:12.899Z,4.63
2019-01-05T23:14:00.393Z,3.27
2019-01-05T23:16:47.679Z,5.13
2019-01-05T23:19:45.290Z,3.40
2019-01-05T23:22:34.318Z,6.67
2019-01-05T23:25:28.847Z,5.43
2019-01-05T23:28:16.246Z,6.07
2019-01-05T23:31:17.000Z,3.20
2019-01-05T23:34:21.229Z,4.17
2019-01-05T23:37:08.316Z,2.90
2019-01-05T23:40:08.744Z,3.20
2019-01-05T23:42:56.115Z,5.97
2019-01-05T23:45:43.514Z,4.00
2019-01-05T23:48:21.814Z,5.40
2019-01-05T23:51:10.119Z,2.43
2019-01-05T23:54:01.202Z,2.17
2019-01-05T23:56:48.510Z,2.37
2019-01-05T23:59:42.684Z,3.30
